sensor_id;sensor_type;location;lat;lon;timestamp;P1;durP1;ratioP1;P2;durP2;ratioP2
27113;SDS011;14648;49.730;8.614;2023-02-01T00:00:45;3.43;;;3.00;;
27113;SDS011;14648;49.730;8.614;2023-02-01T00:03:11;5.40;;;3.40;;
27113;SDS011;14648;49.730;8.614;2023-02-01T00:05:38;5.20;;;3.37;;
27113;SDS011;14648;49.730;8.614;2023-02-01T00:08:04;5.00;;;2.70;;
27113;SDS011;14648;49.730;8.614;2023-02-01T00:10:30;3.80;;;2.77;;
27113;SDS011;14648;49.730;8.614;2023-02-01T00:12:55;2.97;;;2.77;;
27113;SDS011;14648;49.730;8.614;2023-02-01T00:15:21;9.30;;;3.20;;
27113;SDS011;14648;49.730;8.614;2023-02-01T00:17:48;3.47;;;2.70;;
27113;SDS011;14648;49.730;8.614;2023-02-01T00:20:19;7.33;;;2.70;;
27113;SDS011;14648;49.730;8.614;2023-02-01T00:22:45;3.23;;;2.80;;
27113;SDS011;14648;49.730;8.614;2023-02-01T00:25:11;4.60;;;2.87;;
27113;SDS011;14648;49.730;8.614;2023-02-01T00:27:36;4.70;;;3.37;;
27113;SDS011;14648;49.730;8.614;2023-02-01T00:30:02;7.03;;;3.13;;
27113;SDS011;14648;49.730;8.614;2023-02-01T00:32:28;2.93;;;2.73;;
27113;SDS011;14648;49.730;8.614;2023-02-01T00:34:56;2.53;;;2.33;;
27113;SDS011;14648;49.730;8.614;2023-02-01T00:37:22;3.20;;;2.60;;
27113;SDS011;14648;49.730;8.614;2023-02-01T00:39:48;2.77;;;2.57;;
27113;SDS011;14648;49.730;8.614;2023-02-01T00:42:14;7.53;;;2.50;;
27113;SDS011;14648;49.730;8.614;2023-02-01T00:44:40;3.37;;;2.30;;
27113;SDS011;14648;49.730;8.614;2023-02-01T00:47:05;2.73;;;2.53;;
27113;SDS011;14648;49.730;8.614;2023-02-01T00:49:31;4.40;;;2.70;;
27113;SDS011;14648;49.730;8.614;2023-02-01T00:51:57;2.90;;;2.70;;
27113;SDS011;14648;49.730;8.614;2023-02-01T00:54:26;5.17;;;2.90;;
27113;SDS011;14648;49.730;8.614;2023-02-01T00:56:52;5.87;;;3.50;;
27113;SDS011;14648;49.730;8.614;2023-02-01T00:59:17;4.23;;;3.30;;
27113;SDS011;14648;49.730;8.614;2023-02-01T01:01:43;3.17;;;2.50;;
27113;SDS011;14648;49.730;8.614;2023-02-01T01:04:09;6.70;;;3.30;;
27113;SDS011;14648;49.730;8.614;2023-02-01T01:06:35;4.83;;;4.20;;
27113;SDS011;14648;49.730;8.614;2023-02-01T01:09:02;3.87;;;3.07;;
27113;SDS011;14648;49.730;8.614;2023-02-01T01:11:32;3.73;;;2.67;;
27113;SDS011;14648;49.730;8.614;2023-02-01T01:14:00;4.40;;;3.07;;
27113;SDS011;14648;49.730;8.614;2023-02-01T01:16:27;7.43;;;2.87;;
27113;SDS011;14648;49.730;8.614;2023-02-01T01:18:54;9.13;;;3.67;;
27113;SDS011;14648;49.730;8.614;2023-02-01T01:21:21;4.20;;;3.70;;
27113;SDS011;14648;49.730;8.614;2023-02-01T01:23:47;6.97;;;4.20;;
27113;SDS011;14648;49.730;8.614;2023-02-01T01:26:23;3.53;;;3.23;;
27113;SDS011;14648;49.730;8.614;2023-02-01T01:28:51;3.77;;;3.27;;
27113;SDS011;14648;49.730;8.614;2023-02-01T01:31:18;2.47;;;2.27;;
27113;SDS011;14648;49.730;8.614;2023-02-01T01:33:49;3.27;;;3.00;;
27113;SDS011;14648;49.730;8.614;2023-02-01T01:36:20;3.50;;;3.07;;
27113;SDS011;14648;49.730;8.614;2023-02-01T01:38:47;5.53;;;3.50;;
27113;SDS011;14648;49.730;8.614;2023-02-01T01:41:15;3.10;;;2.60;;
27113;SDS011;14648;49.730;8.614;2023-02-01T01:43:55;3.77;;;3.47;;
27113;SDS011;14648;49.730;8.614;2023-02-01T01:46:38;3.50;;;3.13;;
27113;SDS011;14648;49.730;8.614;2023-02-01T01:49:12;6.77;;;3.33;;
27113;SDS011;14648;49.730;8.614;2023-02-01T01:51:44;3.03;;;2.83;;
27113;SDS011;14648;49.730;8.614;2023-02-01T01:57:09;5.47;;;3.27;;
27113;SDS011;14648;49.730;8.614;2023-02-01T02:00:01;3.50;;;3.20;;
27113;SDS011;14648;49.730;8.614;2023-02-01T02:02:43;5.10;;;4.00;;
27113;SDS011;14648;49.730;8.614;2023-02-01T02:05:12;2.83;;;2.63;;
27113;SDS011;14648;49.730;8.614;2023-02-01T02:07:41;3.40;;;2.83;;
27113;SDS011;14648;49.730;8.614;2023-02-01T02:10:12;5.10;;;3.70;;
27113;SDS011;14648;49.730;8.614;2023-02-01T02:12:41;5.27;;;3.50;;
27113;SDS011;14648;49.730;8.614;2023-02-01T02:15:10;5.10;;;3.27;;
27113;SDS011;14648;49.730;8.614;2023-02-01T02:35:25;3.73;;;3.40;;
27113;SDS011;14648;49.730;8.614;2023-02-01T02:43:48;5.77;;;3.50;;
27113;SDS011;14648;49.730;8.614;2023-02-01T02:46:40;8.27;;;3.60;;
27113;SDS011;14648;49.730;8.614;2023-02-01T02:49:40;5.73;;;4.50;;
27113;SDS011;14648;49.730;8.614;2023-02-01T02:52:38;4.07;;;3.23;;
27113;SDS011;14648;49.730;8.614;2023-02-01T02:55:58;5.40;;;3.50;;
27113;SDS011;14648;49.730;8.614;2023-02-01T02:58:44;10.10;;;4.63;;
27113;SDS011;14648;49.730;8.614;2023-02-01T03:01:30;5.07;;;4.00;;
27113;SDS011;14648;49.730;8.614;2023-02-01T03:04:15;6.50;;;3.67;;
27113;SDS011;14648;49.730;8.614;2023-02-01T03:06:43;6.03;;;3.90;;
27113;SDS011;14648;49.730;8.614;2023-02-01T03:09:13;4.80;;;3.20;;
27113;SDS011;14648;49.730;8.614;2023-02-01T03:11:52;5.03;;;4.00;;
27113;SDS011;14648;49.730;8.614;2023-02-01T03:14:43;5.70;;;3.87;;
27113;SDS011;14648;49.730;8.614;2023-02-01T03:17:17;4.63;;;3.60;;
27113;SDS011;14648;49.730;8.614;2023-02-01T03:19:51;6.73;;;4.67;;
27113;SDS011;14648;49.730;8.614;2023-02-01T03:22:22;3.30;;;3.00;;
27113;SDS011;14648;49.730;8.614;2023-02-01T03:24:56;4.57;;;3.97;;
27113;SDS011;14648;49.730;8.614;2023-02-01T03:27:37;6.03;;;3.40;;
27113;SDS011;14648;49.730;8.614;2023-02-01T03:30:24;3.63;;;3.33;;
27113;SDS011;14648;49.730;8.614;2023-02-01T03:32:54;9.20;;;4.00;;
27113;SDS011;14648;49.730;8.614;2023-02-01T03:35:36;8.50;;;3.23;;
27113;SDS011;14648;49.730;8.614;2023-02-01T03:38:27;5.13;;;3.93;;
27113;SDS011;14648;49.730;8.614;2023-02-01T03:41:15;8.27;;;3.87;;
27113;SDS011;14648;49.730;8.614;2023-02-01T03:46:38;10.40;;;4.20;;
27113;SDS011;14648;49.730;8.614;2023-02-01T03:49:12;18.87;;;4.23;;
27113;SDS011;14648;49.730;8.614;2023-02-01T03:51:45;5.60;;;3.80;;
27113;SDS011;14648;49.730;8.614;2023-02-01T03:54:14;7.10;;;3.80;;
27113;SDS011;14648;49.730;8.614;2023-02-01T03:56:42;8.03;;;4.30;;
27113;SDS011;14648;49.730;8.614;2023-02-01T03:59:11;4.90;;;4.10;;
27113;SDS011;14648;49.730;8.614;2023-02-01T04:01:38;12.80;;;5.10;;
27113;SDS011;14648;49.730;8.614;2023-02-01T04:04:05;4.73;;;3.57;;
27113;SDS011;14648;49.730;8.614;2023-02-01T04:06:31;6.70;;;3.97;;
27113;SDS011;14648;49.730;8.614;2023-02-01T04:08:57;11.03;;;4.97;;
27113;SDS011;14648;49.730;8.614;2023-02-01T04:11:24;11.27;;;4.37;;
27113;SDS011;14648;49.730;8.614;2023-02-01T04:13:50;5.27;;;4.00;;
27113;SDS011;14648;49.730;8.614;2023-02-01T04:16:15;7.83;;;4.30;;
27113;SDS011;14648;49.730;8.614;2023-02-01T04:18:41;4.73;;;3.80;;
27113;SDS011;14648;49.730;8.614;2023-02-01T04:21:10;7.57;;;4.50;;
27113;SDS011;14648;49.730;8.614;2023-02-01T04:23:36;6.07;;;4.50;;
27113;SDS011;14648;49.730;8.614;2023-02-01T04:26:03;6.73;;;5.13;;
27113;SDS011;14648;49.730;8.614;2023-02-01T04:28:29;7.10;;;4.63;;
27113;SDS011;14648;49.730;8.614;2023-02-01T04:30:57;5.73;;;4.13;;
27113;SDS011;14648;49.730;8.614;2023-02-01T04:33:22;10.83;;;4.20;;
27113;SDS011;14648;49.730;8.614;2023-02-01T04:35:48;6.37;;;4.40;;
27113;SDS011;14648;49.730;8.614;2023-02-01T04:38:14;9.77;;;5.20;;
27113;SDS011;14648;49.730;8.614;2023-02-01T04:40:40;11.70;;;4.73;;
27113;SDS011;14648;49.730;8.614;2023-02-01T04:43:05;6.70;;;4.70;;
27113;SDS011;14648;49.730;8.614;2023-02-01T04:45:31;5.67;;;4.47;;
27113;SDS011;14648;49.730;8.614;2023-02-01T04:47:58;7.73;;;4.43;;
27113;SDS011;14648;49.730;8.614;2023-02-01T04:50:23;8.47;;;4.50;;
27113;SDS011;14648;49.730;8.614;2023-02-01T04:52:53;7.40;;;4.33;;
27113;SDS011;14648;49.730;8.614;2023-02-01T04:55:20;5.60;;;4.43;;
27113;SDS011;14648;49.730;8.614;2023-02-01T04:57:46;7.37;;;4.60;;
27113;SDS011;14648;49.730;8.614;2023-02-01T05:00:12;9.47;;;4.00;;
27113;SDS011;14648;49.730;8.614;2023-02-01T05:02:39;10.50;;;4.80;;
27113;SDS011;14648;49.730;8.614;2023-02-01T05:05:04;8.33;;;4.60;;
27113;SDS011;14648;49.730;8.614;2023-02-01T05:07:31;7.73;;;4.87;;
27113;SDS011;14648;49.730;8.614;2023-02-01T05:09:56;8.77;;;5.17;;
27113;SDS011;14648;49.730;8.614;2023-02-01T05:12:23;6.27;;;4.50;;
27113;SDS011;14648;49.730;8.614;2023-02-01T05:15:07;14.60;;;4.53;;
27113;SDS011;14648;49.730;8.614;2023-02-01T05:17:33;7.90;;;4.83;;
27113;SDS011;14648;49.730;8.614;2023-02-01T05:19:59;7.90;;;4.20;;
27113;SDS011;14648;49.730;8.614;2023-02-01T05:22:25;8.83;;;4.23;;
27113;SDS011;14648;49.730;8.614;2023-02-01T05:24:50;5.83;;;3.40;;
27113;SDS011;14648;49.730;8.614;2023-02-01T05:27:16;12.30;;;3.60;;
27113;SDS011;14648;49.730;8.614;2023-02-01T05:29:42;5.00;;;2.90;;
27113;SDS011;14648;49.730;8.614;2023-02-01T05:32:09;5.20;;;2.93;;
27113;SDS011;14648;49.730;8.614;2023-02-01T05:34:35;4.00;;;2.77;;
27113;SDS011;14648;49.730;8.614;2023-02-01T05:37:02;1.70;;;1.60;;
27113;SDS011;14648;49.730;8.614;2023-02-01T05:39:27;2.23;;;1.67;;
27113;SDS011;14648;49.730;8.614;2023-02-01T05:41:53;6.60;;;1.83;;
27113;SDS011;14648;49.730;8.614;2023-02-01T05:44:20;2.43;;;1.70;;
27113;SDS011;14648;49.730;8.614;2023-02-01T05:46:45;3.90;;;1.97;;
27113;SDS011;14648;49.730;8.614;2023-02-01T05:49:13;1.90;;;1.50;;
27113;SDS011;14648;49.730;8.614;2023-02-01T05:51:38;1.97;;;1.70;;
27113;SDS011;14648;49.730;8.614;2023-02-01T05:54:04;3.60;;;2.10;;
27113;SDS011;14648;49.730;8.614;2023-02-01T05:56:30;5.60;;;1.70;;
27113;SDS011;14648;49.730;8.614;2023-02-01T05:58:55;2.00;;;1.30;;
27113;SDS011;14648;49.730;8.614;2023-02-01T06:01:21;5.23;;;2.27;;
27113;SDS011;14648;49.730;8.614;2023-02-01T06:03:47;6.20;;;2.17;;
27113;SDS011;14648;49.730;8.614;2023-02-01T06:06:12;3.30;;;2.60;;
27113;SDS011;14648;49.730;8.614;2023-02-01T06:08:38;2.90;;;2.20;;
27113;SDS011;14648;49.730;8.614;2023-02-01T06:11:05;4.10;;;2.47;;
27113;SDS011;14648;49.730;8.614;2023-02-01T06:13:31;7.80;;;3.13;;
27113;SDS011;14648;49.730;8.614;2023-02-01T06:15:58;6.47;;;2.77;;
27113;SDS011;14648;49.730;8.614;2023-02-01T06:18:24;6.57;;;3.03;;
27113;SDS011;14648;49.730;8.614;2023-02-01T06:20:56;7.70;;;3.60;;
27113;SDS011;14648;49.730;8.614;2023-02-01T06:23:27;3.23;;;2.83;;
27113;SDS011;14648;49.730;8.614;2023-02-01T06:25:58;16.23;;;3.60;;
27113;SDS011;14648;49.730;8.614;2023-02-01T06:28:32;8.70;;;3.27;;
27113;SDS011;14648;49.730;8.614;2023-02-01T06:31:02;3.67;;;3.00;;
27113;SDS011;14648;49.730;8.614;2023-02-01T06:33:32;4.03;;;3.27;;
27113;SDS011;14648;49.730;8.614;2023-02-01T06:35:59;5.90;;;3.30;;
27113;SDS011;14648;49.730;8.614;2023-02-01T06:38:28;9.00;;;4.00;;
27113;SDS011;14648;49.730;8.614;2023-02-01T06:41:00;6.57;;;4.27;;
27113;SDS011;14648;49.730;8.614;2023-02-01T06:43:27;7.00;;;4.33;;
27113;SDS011;14648;49.730;8.614;2023-02-01T06:45:53;8.53;;;4.13;;
27113;SDS011;14648;49.730;8.614;2023-02-01T06:48:23;5.03;;;3.47;;
27113;SDS011;14648;49.730;8.614;2023-02-01T06:50:49;11.80;;;4.23;;
27113;SDS011;14648;49.730;8.614;2023-02-01T06:53:19;5.17;;;3.87;;
27113;SDS011;14648;49.730;8.614;2023-02-01T06:55:54;6.97;;;3.70;;
27113;SDS011;14648;49.730;8.614;2023-02-01T06:58:27;8.80;;;5.10;;
27113;SDS011;14648;49.730;8.614;2023-02-01T07:00:58;6.67;;;4.63;;
27113;SDS011;14648;49.730;8.614;2023-02-01T07:03:31;13.90;;;5.20;;
27113;SDS011;14648;49.730;8.614;2023-02-01T07:05:57;12.10;;;4.70;;
27113;SDS011;14648;49.730;8.614;2023-02-01T07:08:29;5.97;;;4.50;;
27113;SDS011;14648;49.730;8.614;2023-02-01T07:11:07;8.20;;;4.90;;
27113;SDS011;14648;49.730;8.614;2023-02-01T07:13:37;15.23;;;4.93;;
27113;SDS011;14648;49.730;8.614;2023-02-01T07:16:04;18.00;;;4.77;;
27113;SDS011;14648;49.730;8.614;2023-02-01T07:18:34;5.60;;;4.40;;
27113;SDS011;14648;49.730;8.614;2023-02-01T07:21:00;6.10;;;3.83;;
27113;SDS011;14648;49.730;8.614;2023-02-01T07:23:26;8.40;;;4.10;;
27113;SDS011;14648;49.730;8.614;2023-02-01T07:25:53;11.87;;;4.03;;
27113;SDS011;14648;49.730;8.614;2023-02-01T07:28:25;11.23;;;4.40;;
27113;SDS011;14648;49.730;8.614;2023-02-01T07:30:51;4.30;;;3.33;;
27113;SDS011;14648;49.730;8.614;2023-02-01T07:33:18;3.83;;;3.50;;
27113;SDS011;14648;49.730;8.614;2023-02-01T07:35:49;5.73;;;3.40;;
27113;SDS011;14648;49.730;8.614;2023-02-01T07:38:17;6.57;;;4.23;;
27113;SDS011;14648;49.730;8.614;2023-02-01T07:40:43;4.50;;;3.23;;
27113;SDS011;14648;49.730;8.614;2023-02-01T07:43:09;11.40;;;3.47;;
27113;SDS011;14648;49.730;8.614;2023-02-01T07:45:35;6.03;;;3.90;;
27113;SDS011;14648;49.730;8.614;2023-02-01T07:48:01;12.83;;;5.03;;
27113;SDS011;14648;49.730;8.614;2023-02-01T07:50:28;16.77;;;4.73;;
27113;SDS011;14648;49.730;8.614;2023-02-01T07:52:54;9.90;;;4.00;;
27113;SDS011;14648;49.730;8.614;2023-02-01T07:55:20;15.03;;;4.37;;
27113;SDS011;14648;49.730;8.614;2023-02-01T07:57:48;8.30;;;3.73;;
27113;SDS011;14648;49.730;8.614;2023-02-01T08:00:14;8.37;;;3.83;;
27113;SDS011;14648;49.730;8.614;2023-02-01T08:02:59;11.20;;;4.10;;
27113;SDS011;14648;49.730;8.614;2023-02-01T08:05:26;19.00;;;4.20;;
27113;SDS011;14648;49.730;8.614;2023-02-01T08:07:53;7.93;;;4.20;;
27113;SDS011;14648;49.730;8.614;2023-02-01T08:10:19;6.70;;;3.73;;
27113;SDS011;14648;49.730;8.614;2023-02-01T08:12:45;8.83;;;3.80;;
27113;SDS011;14648;49.730;8.614;2023-02-01T08:15:13;15.57;;;3.90;;
27113;SDS011;14648;49.730;8.614;2023-02-01T08:17:45;4.40;;;3.20;;
27113;SDS011;14648;49.730;8.614;2023-02-01T08:20:13;12.50;;;4.60;;
27113;SDS011;14648;49.730;8.614;2023-02-01T08:22:38;9.10;;;3.20;;
27113;SDS011;14648;49.730;8.614;2023-02-01T08:25:04;10.27;;;3.40;;
27113;SDS011;14648;49.730;8.614;2023-02-01T08:27:34;6.90;;;3.73;;
27113;SDS011;14648;49.730;8.614;2023-02-01T08:30:00;9.00;;;3.47;;
27113;SDS011;14648;49.730;8.614;2023-02-01T08:32:26;6.00;;;2.90;;
27113;SDS011;14648;49.730;8.614;2023-02-01T08:34:52;8.10;;;3.50;;
27113;SDS011;14648;49.730;8.614;2023-02-01T08:37:18;6.23;;;2.77;;
27113;SDS011;14648;49.730;8.614;2023-02-01T08:39:44;9.00;;;3.53;;
27113;SDS011;14648;49.730;8.614;2023-02-01T08:42:10;17.63;;;4.77;;
27113;SDS011;14648;49.730;8.614;2023-02-01T08:44:55;11.90;;;3.37;;
27113;SDS011;14648;49.730;8.614;2023-02-01T08:47:21;17.73;;;3.43;;
27113;SDS011;14648;49.730;8.614;2023-02-01T08:49:47;10.03;;;3.07;;
27113;SDS011;14648;49.730;8.614;2023-02-01T08:52:13;9.37;;;3.60;;
27113;SDS011;14648;49.730;8.614;2023-02-01T08:54:39;5.53;;;2.80;;
27113;SDS011;14648;49.730;8.614;2023-02-01T08:57:06;12.83;;;3.50;;
27113;SDS011;14648;49.730;8.614;2023-02-01T08:59:32;8.50;;;3.70;;
27113;SDS011;14648;49.730;8.614;2023-02-01T09:01:57;9.50;;;3.77;;
27113;SDS011;14648;49.730;8.614;2023-02-01T09:04:25;10.53;;;4.40;;
27113;SDS011;14648;49.730;8.614;2023-02-01T09:06:51;12.03;;;4.40;;
27113;SDS011;14648;49.730;8.614;2023-02-01T09:09:17;9.20;;;4.13;;
27113;SDS011;14648;49.730;8.614;2023-02-01T09:11:42;10.73;;;4.60;;
27113;SDS011;14648;49.730;8.614;2023-02-01T09:14:08;8.57;;;3.97;;
27113;SDS011;14648;49.730;8.614;2023-02-01T09:16:35;8.20;;;3.63;;
27113;SDS011;14648;49.730;8.614;2023-02-01T09:19:00;10.80;;;3.97;;
27113;SDS011;14648;49.730;8.614;2023-02-01T09:21:26;6.87;;;3.87;;
27113;SDS011;14648;49.730;8.614;2023-02-01T09:23:52;7.10;;;3.10;;
27113;SDS011;14648;49.730;8.614;2023-02-01T09:26:18;11.63;;;3.77;;
27113;SDS011;14648;49.730;8.614;2023-02-01T09:28:44;12.23;;;3.77;;
27113;SDS011;14648;49.730;8.614;2023-02-01T09:31:10;10.17;;;3.57;;
27113;SDS011;14648;49.730;8.614;2023-02-01T09:33:36;19.17;;;4.90;;
27113;SDS011;14648;49.730;8.614;2023-02-01T09:36:02;10.33;;;3.87;;
27113;SDS011;14648;49.730;8.614;2023-02-01T09:38:30;17.47;;;5.53;;
27113;SDS011;14648;49.730;8.614;2023-02-01T09:40:57;7.23;;;4.20;;
27113;SDS011;14648;49.730;8.614;2023-02-01T09:46:21;6.83;;;3.90;;
27113;SDS011;14648;49.730;8.614;2023-02-01T09:48:52;6.63;;;3.37;;
27113;SDS011;14648;49.730;8.614;2023-02-01T09:51:23;8.00;;;3.90;;
27113;SDS011;14648;49.730;8.614;2023-02-01T09:53:59;11.57;;;4.30;;
27113;SDS011;14648;49.730;8.614;2023-02-01T09:56:35;11.57;;;3.57;;
27113;SDS011;14648;49.730;8.614;2023-02-01T09:59:24;9.73;;;3.57;;
27113;SDS011;14648;49.730;8.614;2023-02-01T10:02:24;11.30;;;4.00;;
27113;SDS011;14648;49.730;8.614;2023-02-01T10:04:58;12.80;;;3.60;;
27113;SDS011;14648;49.730;8.614;2023-02-01T10:07:39;8.40;;;4.10;;
27113;SDS011;14648;49.730;8.614;2023-02-01T10:10:44;11.50;;;3.00;;
27113;SDS011;14648;49.730;8.614;2023-02-01T10:16:11;10.87;;;3.47;;
27113;SDS011;14648;49.730;8.614;2023-02-01T10:22:09;11.50;;;3.43;;
27113;SDS011;14648;49.730;8.614;2023-02-01T10:24:58;9.20;;;3.10;;
27113;SDS011;14648;49.730;8.614;2023-02-01T10:27:44;9.10;;;3.30;;
27113;SDS011;14648;49.730;8.614;2023-02-01T10:32:55;11.47;;;2.60;;
27113;SDS011;14648;49.730;8.614;2023-02-01T10:35:30;14.97;;;2.90;;
27113;SDS011;14648;49.730;8.614;2023-02-01T10:38:01;10.67;;;4.30;;
27113;SDS011;14648;49.730;8.614;2023-02-01T10:40:29;8.40;;;3.03;;
27113;SDS011;14648;49.730;8.614;2023-02-01T10:43:01;22.07;;;3.30;;
27113;SDS011;14648;49.730;8.614;2023-02-01T10:45:28;6.40;;;2.20;;
27113;SDS011;14648;49.730;8.614;2023-02-01T10:47:57;9.50;;;2.40;;
27113;SDS011;14648;49.730;8.614;2023-02-01T10:50:35;13.67;;;3.83;;
27113;SDS011;14648;49.730;8.614;2023-02-01T10:53:09;6.83;;;1.90;;
27113;SDS011;14648;49.730;8.614;2023-02-01T10:55:54;10.93;;;1.70;;
27113;SDS011;14648;49.730;8.614;2023-02-01T10:58:26;15.63;;;2.23;;
27113;SDS011;14648;49.730;8.614;2023-02-01T11:01:00;8.60;;;1.97;;
27113;SDS011;14648;49.730;8.614;2023-02-01T11:06:03;12.63;;;3.00;;
27113;SDS011;14648;49.730;8.614;2023-02-01T11:08:48;10.10;;;2.20;;
27113;SDS011;14648;49.730;8.614;2023-02-01T11:11:18;6.00;;;2.67;;
27113;SDS011;14648;49.730;8.614;2023-02-01T11:13:45;6.80;;;1.90;;
27113;SDS011;14648;49.730;8.614;2023-02-01T11:16:28;11.80;;;2.00;;
27113;SDS011;14648;49.730;8.614;2023-02-01T11:18:58;8.53;;;2.73;;
27113;SDS011;14648;49.730;8.614;2023-02-01T11:21:24;10.57;;;1.50;;
27113;SDS011;14648;49.730;8.614;2023-02-01T11:23:50;8.10;;;1.90;;
27113;SDS011;14648;49.730;8.614;2023-02-01T11:26:21;4.63;;;2.00;;
27113;SDS011;14648;49.730;8.614;2023-02-01T11:29:05;7.67;;;2.47;;
27113;SDS011;14648;49.730;8.614;2023-02-01T11:31:39;7.70;;;2.30;;
27113;SDS011;14648;49.730;8.614;2023-02-01T11:34:12;11.50;;;2.20;;
27113;SDS011;14648;49.730;8.614;2023-02-01T11:36:42;7.00;;;1.83;;
27113;SDS011;14648;49.730;8.614;2023-02-01T11:41:54;8.30;;;1.60;;
27113;SDS011;14648;49.730;8.614;2023-02-01T11:44:43;10.43;;;2.30;;
27113;SDS011;14648;49.730;8.614;2023-02-01T11:47:23;9.13;;;2.33;;
27113;SDS011;14648;49.730;8.614;2023-02-01T11:49:55;6.23;;;2.73;;
27113;SDS011;14648;49.730;8.614;2023-02-01T12:07:46;6.37;;;2.33;;
27113;SDS011;14648;49.730;8.614;2023-02-01T12:31:54;10.90;;;2.77;;
27113;SDS011;14648;49.730;8.614;2023-02-01T12:34:50;7.10;;;2.13;;
27113;SDS011;14648;49.730;8.614;2023-02-01T12:37:47;4.13;;;1.37;;
27113;SDS011;14648;49.730;8.614;2023-02-01T12:40:40;10.70;;;1.97;;
27113;SDS011;14648;49.730;8.614;2023-02-01T12:46:05;17.93;;;2.93;;
27113;SDS011;14648;49.730;8.614;2023-02-01T12:48:49;10.77;;;1.80;;
27113;SDS011;14648;49.730;8.614;2023-02-01T12:51:25;7.00;;;1.67;;
27113;SDS011;14648;49.730;8.614;2023-02-01T12:53:59;8.73;;;1.60;;
27113;SDS011;14648;49.730;8.614;2023-02-01T12:56:41;11.83;;;1.53;;
27113;SDS011;14648;49.730;8.614;2023-02-01T13:07:47;12.63;;;2.60;;
27113;SDS011;14648;49.730;8.614;2023-02-01T13:10:21;5.57;;;2.47;;
27113;SDS011;14648;49.730;8.614;2023-02-01T13:13:09;12.07;;;2.00;;
27113;SDS011;14648;49.730;8.614;2023-02-01T13:16:13;13.83;;;2.43;;
27113;SDS011;14648;49.730;8.614;2023-02-01T13:18:50;7.07;;;1.90;;
27113;SDS011;14648;49.730;8.614;2023-02-01T13:21:25;4.27;;;1.83;;
27113;SDS011;14648;49.730;8.614;2023-02-01T13:23:58;6.17;;;2.07;;
27113;SDS011;14648;49.730;8.614;2023-02-01T13:26:24;12.33;;;2.13;;
27113;SDS011;14648;49.730;8.614;2023-02-01T13:28:59;16.70;;;3.07;;
27113;SDS011;14648;49.730;8.614;2023-02-01T13:31:52;6.20;;;2.03;;
27113;SDS011;14648;49.730;8.614;2023-02-01T13:38:02;5.83;;;1.77;;
27113;SDS011;14648;49.730;8.614;2023-02-01T13:41:02;8.30;;;2.87;;
27113;SDS011;14648;49.730;8.614;2023-02-01T13:43:52;6.37;;;1.90;;
27113;SDS011;14648;49.730;8.614;2023-02-01T13:46:24;6.47;;;1.40;;
27113;SDS011;14648;49.730;8.614;2023-02-01T13:48:54;5.33;;;2.20;;
27113;SDS011;14648;49.730;8.614;2023-02-01T13:51:33;6.90;;;2.60;;
27113;SDS011;14648;49.730;8.614;2023-02-01T13:54:18;7.97;;;2.10;;
27113;SDS011;14648;49.730;8.614;2023-02-01T13:56:52;10.43;;;2.10;;
27113;SDS011;14648;49.730;8.614;2023-02-01T14:23:44;13.23;;;2.00;;
27113;SDS011;14648;49.730;8.614;2023-02-01T14:26:13;6.83;;;1.80;;
27113;SDS011;14648;49.730;8.614;2023-02-01T14:28:46;9.57;;;2.17;;
27113;SDS011;14648;49.730;8.614;2023-02-01T14:31:58;16.23;;;2.90;;
27113;SDS011;14648;49.730;8.614;2023-02-01T14:34:32;9.97;;;2.37;;
27113;SDS011;14648;49.730;8.614;2023-02-01T14:37:31;10.30;;;3.10;;
27113;SDS011;14648;49.730;8.614;2023-02-01T14:39:59;6.00;;;2.40;;
27113;SDS011;14648;49.730;8.614;2023-02-01T14:42:45;14.33;;;2.90;;
27113;SDS011;14648;49.730;8.614;2023-02-01T14:47:49;5.37;;;1.93;;
27113;SDS011;14648;49.730;8.614;2023-02-01T14:50:23;8.67;;;2.10;;
27113;SDS011;14648;49.730;8.614;2023-02-01T14:53:14;12.17;;;2.37;;
27113;SDS011;14648;49.730;8.614;2023-02-01T14:55:48;16.37;;;2.90;;
27113;SDS011;14648;49.730;8.614;2023-02-01T15:03:53;6.53;;;2.17;;
27113;SDS011;14648;49.730;8.614;2023-02-01T15:06:31;7.47;;;2.00;;
27113;SDS011;14648;49.730;8.614;2023-02-01T15:09:24;7.60;;;2.03;;
27113;SDS011;14648;49.730;8.614;2023-02-01T15:12:02;6.17;;;2.43;;
27113;SDS011;14648;49.730;8.614;2023-02-01T15:15:07;12.03;;;2.30;;
27113;SDS011;14648;49.730;8.614;2023-02-01T15:17:54;7.00;;;1.77;;
27113;SDS011;14648;49.730;8.614;2023-02-01T15:20:31;11.20;;;2.80;;
27113;SDS011;14648;49.730;8.614;2023-02-01T15:23:02;7.80;;;1.50;;
27113;SDS011;14648;49.730;8.614;2023-02-01T15:25:39;8.77;;;2.57;;
27113;SDS011;14648;49.730;8.614;2023-02-01T15:28:05;4.63;;;1.70;;
27113;SDS011;14648;49.730;8.614;2023-02-01T15:30:38;6.03;;;1.80;;
27113;SDS011;14648;49.730;8.614;2023-02-01T15:35:42;9.93;;;2.27;;
27113;SDS011;14648;49.730;8.614;2023-02-01T15:46:30;3.13;;;1.40;;
27113;SDS011;14648;49.730;8.614;2023-02-01T15:49:02;7.97;;;1.60;;
27113;SDS011;14648;49.730;8.614;2023-02-01T15:51:30;6.40;;;2.33;;
27113;SDS011;14648;49.730;8.614;2023-02-01T15:54:02;10.77;;;1.77;;
27113;SDS011;14648;49.730;8.614;2023-02-01T15:56:35;7.60;;;1.80;;
27113;SDS011;14648;49.730;8.614;2023-02-01T15:59:05;16.67;;;2.00;;
27113;SDS011;14648;49.730;8.614;2023-02-01T16:01:40;9.93;;;2.10;;
27113;SDS011;14648;49.730;8.614;2023-02-01T16:09:20;12.53;;;2.37;;
27113;SDS011;14648;49.730;8.614;2023-02-01T16:11:57;7.23;;;2.10;;
27113;SDS011;14648;49.730;8.614;2023-02-01T16:14:25;5.63;;;2.03;;
27113;SDS011;14648;49.730;8.614;2023-02-01T16:16:54;8.63;;;2.80;;
27113;SDS011;14648;49.730;8.614;2023-02-01T16:19:22;11.70;;;3.00;;
27113;SDS011;14648;49.730;8.614;2023-02-01T16:21:53;14.50;;;4.40;;
27113;SDS011;14648;49.730;8.614;2023-02-01T16:24:20;11.70;;;3.70;;
27113;SDS011;14648;49.730;8.614;2023-02-01T16:26:48;8.97;;;2.73;;
27113;SDS011;14648;49.730;8.614;2023-02-01T16:29:13;8.57;;;2.17;;
27113;SDS011;14648;49.730;8.614;2023-02-01T16:31:40;5.60;;;2.10;;
27113;SDS011;14648;49.730;8.614;2023-02-01T16:34:09;10.80;;;2.50;;
27113;SDS011;14648;49.730;8.614;2023-02-01T16:36:42;6.83;;;1.47;;
27113;SDS011;14648;49.730;8.614;2023-02-01T16:41:45;7.03;;;1.93;;
27113;SDS011;14648;49.730;8.614;2023-02-01T16:44:11;8.23;;;2.90;;
27113;SDS011;14648;49.730;8.614;2023-02-01T16:46:42;8.20;;;2.53;;
27113;SDS011;14648;49.730;8.614;2023-02-01T16:49:20;10.57;;;2.73;;
27113;SDS011;14648;49.730;8.614;2023-02-01T16:51:50;6.23;;;2.43;;
27113;SDS011;14648;49.730;8.614;2023-02-01T16:54:21;7.63;;;2.77;;
27113;SDS011;14648;49.730;8.614;2023-02-01T16:56:48;6.83;;;3.37;;
27113;SDS011;14648;49.730;8.614;2023-02-01T16:59:14;3.23;;;1.67;;
27113;SDS011;14648;49.730;8.614;2023-02-01T17:01:40;13.50;;;3.50;;
27113;SDS011;14648;49.730;8.614;2023-02-01T17:04:08;12.80;;;3.40;;
27113;SDS011;14648;49.730;8.614;2023-02-01T17:06:37;10.53;;;1.80;;
27113;SDS011;14648;49.730;8.614;2023-02-01T17:09:06;4.90;;;2.43;;
27113;SDS011;14648;49.730;8.614;2023-02-01T17:11:34;7.67;;;2.43;;
27113;SDS011;14648;49.730;8.614;2023-02-01T17:14:15;14.73;;;2.40;;
27113;SDS011;14648;49.730;8.614;2023-02-01T17:16:47;12.13;;;1.97;;
27113;SDS011;14648;49.730;8.614;2023-02-01T17:19:16;8.30;;;2.30;;
27113;SDS011;14648;49.730;8.614;2023-02-01T17:21:49;14.80;;;2.50;;
27113;SDS011;14648;49.730;8.614;2023-02-01T17:24:21;16.20;;;5.13;;
27113;SDS011;14648;49.730;8.614;2023-02-01T17:26:56;10.57;;;1.57;;
27113;SDS011;14648;49.730;8.614;2023-02-01T17:29:23;4.63;;;2.07;;
27113;SDS011;14648;49.730;8.614;2023-02-01T17:31:51;15.90;;;2.85;;
27113;SDS011;14648;49.730;8.614;2023-02-01T17:34:20;9.40;;;2.30;;
27113;SDS011;14648;49.730;8.614;2023-02-01T17:36:48;12.53;;;2.73;;
27113;SDS011;14648;49.730;8.614;2023-02-01T17:39:15;8.83;;;2.13;;